createdAt,value
2019-02-02T00:00:32.008Z,11.30
2019-02-02T00:03:01.683Z,11.30
2019-02-02T00:05:31.434Z,11.20
2019-02-02T00:08:04.377Z,11.30
2019-02-02T00:10:33.786Z,11.20
2019-02-02T00:13:04.689Z,11.30
2019-02-02T00:15:35.249Z,11.20
2019-02-02T00:18:05.031Z,11.20
2019-02-02T00:20:36.049Z,11.20
2019-02-02T00:23:06.901Z,11.10
2019-02-02T00:25:35.936Z,11.10
2019-02-02T00:28:06.963Z,11.10
2019-02-02T00:30:37.624Z,11.10
2019-02-02T00:33:08.329Z,11.10
2019-02-02T00:35:38.291Z,11.10
2019-02-02T00:38:07.337Z,11.10
2019-02-02T00:40:43.109Z,11.00
2019-02-02T00:43:14.171Z,11.00
2019-02-02T00:45:43.949Z,11.00
2019-02-02T00:48:16.589Z,11.00
2019-02-02T00:50:47.814Z,10.90
2019-02-02T00:53:17.994Z,10.90
2019-02-02T00:55:49.214Z,10.80
2019-02-02T00:58:20.709Z,10.80
2019-02-02T01:00:51.843Z,10.80
2019-02-02T01:03:21.431Z,10.90
2019-02-02T01:05:52.481Z,10.80
2019-02-02T01:08:22.618Z,10.80
2019-02-02T01:10:54.243Z,10.80
2019-02-02T01:13:23.854Z,10.80
2019-02-02T01:15:53.180Z,10.80
2019-02-02T01:18:24.412Z,10.80
2019-02-02T01:20:54.109Z,10.80
2019-02-02T01:23:25.574Z,10.80
2019-02-02T01:25:56.881Z,10.90
2019-02-02T01:28:28.591Z,11.00
2019-02-02T01:30:58.607Z,11.20
2019-02-02T01:33:29.169Z,11.20
2019-02-02T01:36:00.052Z,11.30
2019-02-02T01:38:32.366Z,11.30
2019-02-02T01:41:01.736Z,11.20
2019-02-02T01:43:31.499Z,11.30
2019-02-02T01:46:01.171Z,11.30
2019-02-02T01:48:32.071Z,11.30
2019-02-02T01:51:05.374Z,11.30
2019-02-02T01:53:35.572Z,11.30
2019-02-02T01:56:07.519Z,11.30
2019-02-02T01:58:38.875Z,11.30
2019-02-02T02:01:09.973Z,11.30
2019-02-02T02:03:40.889Z,11.30
2019-02-02T02:06:11.204Z,11.30
2019-02-02T02:08:41.825Z,11.30
2019-02-02T02:11:13.682Z,11.20
2019-02-02T02:13:46.164Z,11.20
2019-02-02T02:16:17.722Z,11.20
2019-02-02T02:18:48.001Z,11.30
2019-02-02T02:21:19.132Z,11.20
2019-02-02T02:23:51.549Z,11.30
2019-02-02T02:26:22.851Z,11.30
2019-02-02T02:28:54.139Z,11.30
2019-02-02T02:31:25.622Z,11.20
2019-02-02T02:33:56.362Z,11.20
2019-02-02T02:36:26.197Z,11.20
2019-02-02T02:38:59.682Z,11.20
2019-02-02T02:41:34.139Z,11.20
2019-02-02T02:44:04.832Z,11.20
2019-02-02T02:46:34.977Z,11.30
2019-02-02T02:49:05.608Z,11.30
2019-02-02T02:51:35.546Z,11.30
2019-02-02T02:54:07.229Z,11.30
2019-02-02T02:56:38.116Z,11.30
2019-02-02T02:59:09.209Z,11.30
2019-02-02T03:01:39.789Z,11.20
2019-02-02T03:04:10.184Z,11.20
2019-02-02T03:06:40.376Z,11.20
2019-02-02T03:09:12.662Z,11.10
2019-02-02T03:11:44.246Z,11.00
2019-02-02T03:14:13.892Z,11.00
2019-02-02T03:16:43.579Z,11.00
2019-02-02T03:19:16.398Z,11.00
2019-02-02T03:21:45.974Z,11.00
2019-02-02T03:24:16.833Z,11.00
2019-02-02T03:26:47.134Z,11.00
2019-02-02T03:29:17.017Z,11.00
2019-02-02T03:31:49.990Z,11.00
2019-02-02T03:34:21.420Z,11.00
2019-02-02T03:36:52.068Z,11.00
2019-02-02T03:39:23.579Z,11.00
2019-02-02T03:41:54.431Z,10.90
2019-02-02T03:44:24.501Z,11.00
2019-02-02T03:46:55.158Z,11.00
2019-02-02T03:49:25.087Z,11.00
2019-02-02T03:51:55.521Z,11.10
2019-02-02T03:54:25.676Z,11.00
2019-02-02T03:56:55.686Z,11.00
2019-02-02T03:59:26.424Z,11.10
2019-02-02T04:01:56.181Z,11.00
2019-02-02T04:04:26.527Z,11.00
2019-02-02T04:06:55.850Z,11.00
2019-02-02T04:09:24.875Z,11.00
2019-02-02T04:11:54.173Z,11.10
2019-02-02T04:14:23.862Z,11.10
2019-02-02T04:16:54.129Z,11.00
2019-02-02T04:19:23.383Z,11.00
2019-02-02T04:21:55.406Z,11.00
2019-02-02T04:24:24.695Z,11.00
2019-02-02T04:26:55.010Z,11.00
2019-02-02T04:29:24.139Z,11.10
2019-02-02T04:31:54.583Z,11.10
2019-02-02T04:34:23.482Z,11.20
2019-02-02T04:36:53.537Z,11.20
2019-02-02T04:39:23.564Z,11.30
2019-02-02T04:41:53.204Z,11.50
2019-02-02T04:44:23.926Z,11.70
2019-02-02T04:46:54.379Z,11.70
2019-02-02T04:49:24.484Z,11.70
2019-02-02T04:51:55.129Z,11.80
2019-02-02T04:54:24.142Z,11.90
2019-02-02T04:56:53.063Z,12.00
2019-02-02T04:59:28.986Z,12.00
2019-02-02T05:01:55.944Z,12.20
2019-02-02T05:04:25.807Z,12.20
2019-02-02T05:06:55.854Z,12.10
2019-02-02T05:09:27.542Z,12.00
2019-02-02T05:11:58.329Z,12.00
2019-02-02T05:14:29.605Z,12.00
2019-02-02T05:17:00.515Z,12.00
2019-02-02T05:19:31.327Z,11.90
2019-02-02T05:22:01.260Z,11.90
2019-02-02T05:24:30.319Z,11.90
2019-02-02T05:26:59.775Z,12.00
2019-02-02T05:29:40.784Z,11.90
2019-02-02T05:32:01.614Z,11.80
2019-02-02T05:34:31.124Z,11.80
2019-02-02T05:37:00.614Z,11.80
2019-02-02T05:39:31.433Z,11.80
2019-02-02T05:42:02.182Z,11.90
2019-02-02T05:44:32.803Z,11.80
2019-02-02T05:47:01.876Z,11.70
2019-02-02T05:49:33.585Z,11.70
2019-02-02T05:52:02.959Z,11.70
2019-02-02T05:54:32.879Z,11.80
2019-02-02T05:57:03.769Z,11.70
2019-02-02T05:59:33.854Z,11.70
2019-02-02T06:02:03.931Z,11.60
2019-02-02T06:04:34.437Z,11.70
2019-02-02T06:07:04.212Z,11.70
2019-02-02T06:09:33.902Z,11.60
2019-02-02T06:12:04.744Z,11.50
2019-02-02T06:14:36.001Z,11.50
2019-02-02T06:17:07.135Z,11.50
2019-02-02T06:19:37.327Z,11.60
2019-02-02T06:22:08.870Z,11.50
2019-02-02T06:24:39.002Z,11.50
2019-02-02T06:27:10.539Z,11.40
2019-02-02T06:29:46.095Z,11.40
2019-02-02T06:32:15.858Z,11.40
2019-02-02T06:34:45.747Z,11.30
2019-02-02T06:37:16.422Z,11.20
2019-02-02T06:39:47.330Z,11.10
2019-02-02T06:42:18.209Z,11.10
2019-02-02T06:44:48.245Z,11.20
2019-02-02T06:47:18.837Z,11.20
2019-02-02T06:49:48.820Z,11.20
2019-02-02T06:52:20.998Z,11.20
2019-02-02T06:54:52.370Z,11.20
2019-02-02T06:57:22.523Z,11.30
2019-02-02T06:59:53.040Z,11.30
2019-02-02T07:02:23.173Z,11.30
2019-02-02T07:04:52.997Z,11.20
2019-02-02T07:07:22.280Z,11.20
2019-02-02T07:09:53.230Z,11.20
2019-02-02T07:12:25.577Z,11.20
2019-02-02T07:14:55.901Z,11.30
2019-02-02T07:17:25.154Z,11.20
2019-02-02T07:19:53.945Z,11.20
2019-02-02T07:22:24.286Z,11.10
2019-02-02T07:24:55.455Z,11.10
2019-02-02T07:27:25.455Z,11.10
2019-02-02T07:29:55.908Z,11.00
2019-02-02T07:32:28.003Z,11.10
2019-02-02T07:34:57.776Z,11.10
2019-02-02T07:37:27.838Z,11.10
2019-02-02T07:39:59.636Z,11.10
2019-02-02T07:42:29.458Z,11.00
2019-02-02T07:44:58.682Z,10.90
2019-02-02T07:47:36.175Z,10.80
2019-02-02T07:50:07.531Z,10.80
2019-02-02T07:52:38.277Z,10.70
2019-02-02T07:55:12.103Z,10.50
2019-02-02T07:57:43.680Z,10.50
2019-02-02T08:00:42.399Z,10.30
2019-02-02T08:03:15.262Z,10.20
2019-02-02T08:05:45.977Z,10.10
2019-02-02T08:08:17.007Z,10.00
2019-02-02T08:10:46.887Z,10.00
2019-02-02T08:13:16.991Z,9.90
2019-02-02T08:15:47.225Z,9.80
2019-02-02T08:18:16.376Z,9.70
2019-02-02T08:20:47.661Z,9.70
2019-02-02T08:23:17.675Z,9.70
2019-02-02T08:25:48.086Z,9.70
2019-02-02T08:28:18.018Z,9.70
2019-02-02T08:30:52.414Z,9.70
2019-02-02T08:33:19.454Z,9.60
2019-02-02T08:35:50.126Z,9.40
2019-02-02T08:38:20.165Z,9.30
2019-02-02T08:40:49.750Z,9.30
2019-02-02T08:43:20.271Z,9.20
2019-02-02T08:45:51.640Z,9.20
2019-02-02T08:48:20.741Z,9.20
2019-02-02T08:50:57.085Z,9.30
2019-02-02T08:53:26.894Z,9.30
2019-02-02T08:55:57.051Z,9.30
2019-02-02T08:58:27.290Z,9.40
2019-02-02T09:01:04.229Z,9.40
2019-02-02T09:03:28.122Z,9.40
2019-02-02T09:06:00.111Z,9.50
2019-02-02T09:08:31.803Z,9.40
2019-02-02T09:11:00.800Z,9.50
2019-02-02T09:13:30.882Z,9.60
2019-02-02T09:16:01.363Z,9.60
2019-02-02T09:18:32.777Z,9.50
2019-02-02T09:21:02.079Z,9.50
2019-02-02T09:23:34.507Z,9.50
2019-02-02T09:26:03.452Z,9.50
2019-02-02T09:28:34.059Z,9.60
2019-02-02T09:31:15.168Z,9.60
2019-02-02T09:33:38.490Z,9.60
2019-02-02T09:36:10.402Z,9.60
2019-02-02T09:38:41.321Z,9.70
2019-02-02T09:41:10.921Z,9.70
2019-02-02T09:43:41.246Z,9.70
2019-02-02T09:46:11.505Z,9.70
2019-02-02T09:48:40.222Z,9.70
2019-02-02T09:51:10.254Z,9.70
2019-02-02T09:53:39.949Z,9.70
2019-02-02T09:56:09.681Z,9.70
2019-02-02T09:58:38.616Z,9.70
2019-02-02T10:01:08.075Z,9.70
2019-02-02T10:03:38.847Z,9.70
2019-02-02T10:06:08.647Z,9.70
2019-02-02T10:08:38.986Z,9.70
2019-02-02T10:11:09.923Z,9.70
2019-02-02T10:13:39.384Z,9.70
2019-02-02T10:16:09.919Z,9.60
2019-02-02T10:18:40.033Z,9.60
2019-02-02T10:21:09.004Z,9.60
2019-02-02T10:23:39.057Z,9.60
2019-02-02T10:26:09.129Z,9.60
2019-02-02T10:28:38.998Z,9.60
2019-02-02T10:31:10.265Z,9.60
2019-02-02T10:33:39.700Z,9.60
2019-02-02T10:36:09.081Z,9.60
2019-02-02T10:38:40.289Z,9.60
2019-02-02T10:41:11.180Z,9.60
2019-02-02T10:43:44.179Z,9.60
2019-02-02T10:46:17.391Z,9.60
2019-02-02T10:48:47.775Z,9.60
2019-02-02T10:51:17.087Z,9.50
2019-02-02T10:53:46.970Z,9.50
2019-02-02T10:56:16.998Z,9.50
2019-02-02T10:58:46.809Z,9.40
2019-02-02T11:01:16.475Z,9.40
2019-02-02T11:03:45.942Z,9.30
2019-02-02T11:06:18.456Z,9.20
2019-02-02T11:08:48.072Z,9.20
2019-02-02T11:11:18.705Z,9.20
2019-02-02T11:13:49.312Z,9.20
2019-02-02T11:16:19.219Z,9.20
2019-02-02T11:18:49.150Z,9.20
2019-02-02T11:21:19.359Z,9.20
2019-02-02T11:23:50.328Z,9.20
2019-02-02T11:26:20.232Z,9.20
2019-02-02T11:28:50.704Z,9.20
2019-02-02T11:31:21.619Z,9.20
2019-02-02T11:33:51.505Z,9.20
2019-02-02T11:36:22.192Z,9.20
2019-02-02T11:38:51.876Z,9.20
2019-02-02T11:41:22.223Z,9.10
2019-02-02T11:43:56.378Z,9.20
2019-02-02T11:46:29.364Z,9.20
2019-02-02T11:48:59.094Z,9.20
2019-02-02T11:51:30.236Z,9.20
2019-02-02T11:53:59.448Z,9.20
2019-02-02T11:56:35.601Z,9.20
2019-02-02T11:59:09.606Z,9.20
2019-02-02T12:01:41.550Z,9.20
2019-02-02T12:04:12.019Z,9.10
2019-02-02T12:06:45.363Z,9.10
2019-02-02T12:09:15.550Z,9.10
2019-02-02T12:11:46.278Z,9.10
2019-02-02T12:14:16.252Z,9.10
2019-02-02T12:16:47.755Z,9.10
2019-02-02T12:19:18.050Z,9.10
2019-02-02T12:21:49.194Z,9.10
2019-02-02T12:24:19.290Z,9.10
2019-02-02T12:26:50.623Z,9.10
2019-02-02T12:29:20.156Z,9.10
2019-02-02T12:31:50.846Z,9.10
2019-02-02T12:34:21.993Z,9.10
2019-02-02T12:36:51.383Z,9.00
2019-02-02T12:39:21.028Z,9.00
2019-02-02T12:41:55.925Z,9.00
2019-02-02T12:44:25.468Z,9.00
2019-02-02T12:46:56.263Z,9.00
2019-02-02T12:49:25.068Z,9.00
2019-02-02T12:51:54.689Z,9.00
2019-02-02T12:54:23.443Z,9.00
2019-02-02T12:56:53.591Z,9.00
2019-02-02T12:59:28.934Z,9.00
2019-02-02T13:01:58.295Z,9.00
2019-02-02T13:04:28.471Z,9.00
2019-02-02T13:06:59.654Z,9.00
2019-02-02T13:09:30.715Z,9.00
2019-02-02T13:12:00.846Z,9.00
2019-02-02T13:14:33.849Z,9.00
2019-02-02T13:17:04.505Z,9.00
2019-02-02T13:19:33.876Z,9.00
2019-02-02T13:22:05.248Z,9.00
2019-02-02T13:24:36.425Z,9.00
2019-02-02T13:27:06.930Z,9.00
2019-02-02T13:29:36.321Z,9.00
2019-02-02T13:32:07.638Z,8.90
2019-02-02T13:34:39.456Z,8.90
2019-02-02T13:37:08.861Z,8.90
2019-02-02T13:39:39.316Z,8.90
2019-02-02T13:42:09.865Z,8.80
2019-02-02T13:44:39.956Z,8.90
2019-02-02T13:47:10.013Z,8.90
2019-02-02T13:49:46.890Z,8.80
2019-02-02T13:52:19.354Z,8.80
2019-02-02T13:54:49.988Z,8.80
2019-02-02T13:57:21.807Z,8.80
2019-02-02T13:59:52.399Z,8.80
2019-02-02T14:02:24.549Z,8.80
2019-02-02T14:04:54.309Z,8.80
2019-02-02T14:07:24.378Z,8.80
2019-02-02T14:09:54.543Z,8.80
2019-02-02T14:12:25.446Z,8.80
2019-02-02T14:14:55.753Z,8.80
2019-02-02T14:17:26.953Z,8.80
2019-02-02T14:19:56.600Z,8.70
2019-02-02T14:22:27.530Z,8.80
2019-02-02T14:24:57.531Z,8.80
2019-02-02T14:27:27.988Z,8.80
2019-02-02T14:29:58.263Z,8.80
2019-02-02T14:32:28.216Z,8.80
2019-02-02T14:34:58.390Z,8.70
2019-02-02T14:37:29.828Z,8.80
2019-02-02T14:40:00.529Z,8.80
2019-02-02T14:42:30.329Z,8.80
2019-02-02T14:45:02.693Z,8.70
2019-02-02T14:47:36.232Z,8.80
2019-02-02T14:50:10.408Z,8.70
2019-02-02T14:52:40.721Z,8.70
2019-02-02T14:55:14.702Z,8.70
2019-02-02T14:57:45.658Z,8.70
2019-02-02T15:00:36.010Z,8.60
2019-02-02T15:03:05.713Z,8.60
2019-02-02T15:05:43.203Z,8.50
2019-02-02T15:08:12.037Z,8.50
2019-02-02T15:10:43.336Z,8.50
2019-02-02T15:13:15.891Z,8.50
2019-02-02T15:15:48.722Z,8.50
2019-02-02T15:18:18.961Z,8.50
2019-02-02T15:20:48.013Z,8.50
2019-02-02T15:23:21.066Z,8.40
2019-02-02T15:25:51.816Z,8.40
2019-02-02T15:28:22.768Z,8.30
2019-02-02T15:30:53.576Z,8.30
2019-02-02T15:33:37.256Z,8.20
2019-02-02T15:35:59.053Z,8.10
2019-02-02T15:38:31.099Z,8.10
2019-02-02T15:41:03.271Z,8.10
2019-02-02T15:43:32.110Z,8.00
2019-02-02T15:46:04.182Z,8.00
2019-02-02T15:48:38.136Z,8.00
2019-02-02T15:51:08.839Z,8.10
2019-02-02T15:53:44.500Z,8.00
2019-02-02T15:56:16.450Z,8.10
2019-02-02T15:58:49.745Z,8.10
2019-02-02T16:01:20.528Z,8.10
2019-02-02T16:03:50.051Z,8.10
2019-02-02T16:06:20.224Z,8.10
2019-02-02T16:08:51.061Z,8.10
2019-02-02T16:11:20.840Z,8.10
2019-02-02T16:13:51.519Z,8.10
2019-02-02T16:16:21.943Z,8.20
2019-02-02T16:18:52.289Z,8.20
2019-02-02T16:21:26.022Z,8.10
2019-02-02T16:23:56.478Z,8.10
2019-02-02T16:26:26.474Z,8.00
2019-02-02T16:28:57.265Z,8.00
2019-02-02T16:31:28.376Z,8.00
2019-02-02T16:34:02.323Z,8.00
2019-02-02T16:36:31.291Z,8.00
2019-02-02T16:39:02.754Z,7.90
2019-02-02T16:41:38.334Z,7.90
2019-02-02T16:44:09.251Z,7.90
2019-02-02T16:46:39.646Z,7.90
2019-02-02T16:49:13.907Z,7.80
2019-02-02T16:51:44.825Z,7.80
2019-02-02T16:54:15.476Z,7.80
2019-02-02T16:56:51.038Z,7.80
2019-02-02T16:59:22.103Z,7.70
2019-02-02T17:01:53.520Z,7.70
2019-02-02T17:04:23.310Z,7.70
2019-02-02T17:06:54.744Z,7.60
2019-02-02T17:09:24.058Z,7.60
2019-02-02T17:11:53.958Z,7.60
2019-02-02T17:14:24.117Z,7.60
2019-02-02T17:16:54.434Z,7.60
2019-02-02T17:19:27.673Z,7.60
2019-02-02T17:21:58.623Z,7.50
2019-02-02T17:24:29.970Z,7.60
2019-02-02T17:27:00.803Z,7.50
2019-02-02T17:29:32.416Z,7.50
2019-02-02T17:32:02.819Z,7.50
2019-02-02T17:34:33.007Z,7.50
2019-02-02T17:37:03.631Z,7.40
2019-02-02T17:39:33.622Z,7.40
2019-02-02T17:42:04.021Z,7.40
2019-02-02T17:44:36.412Z,7.40
2019-02-02T17:47:07.132Z,7.50
2019-02-02T17:49:40.021Z,7.50
2019-02-02T17:52:10.055Z,7.50
2019-02-02T17:54:40.956Z,7.50
2019-02-02T17:57:12.198Z,7.50
2019-02-02T17:59:41.200Z,7.50
2019-02-02T18:02:11.501Z,7.50
2019-02-02T18:04:43.300Z,7.40
2019-02-02T18:07:12.951Z,7.40
2019-02-02T18:09:46.663Z,7.40
2019-02-02T18:12:16.366Z,7.40
2019-02-02T18:14:47.437Z,7.40
2019-02-02T18:17:18.991Z,7.40
2019-02-02T18:19:50.736Z,7.40
2019-02-02T18:22:21.160Z,7.30
2019-02-02T18:24:50.972Z,7.30
2019-02-02T18:27:20.774Z,7.30
2019-02-02T18:29:53.132Z,7.30
2019-02-02T18:32:25.806Z,7.30
2019-02-02T18:34:56.495Z,7.30
2019-02-02T18:37:26.633Z,7.30
2019-02-02T18:39:58.087Z,7.30
2019-02-02T18:42:28.771Z,7.30
2019-02-02T18:44:57.503Z,7.30
2019-02-02T18:47:28.151Z,7.30
2019-02-02T18:49:59.449Z,7.30
2019-02-02T18:52:31.202Z,7.30
2019-02-02T18:55:10.273Z,7.30
2019-02-02T18:57:44.792Z,7.20
2019-02-02T19:00:18.371Z,7.30
2019-02-02T19:02:48.416Z,7.20
2019-02-02T19:05:28.968Z,7.20
2019-02-02T19:07:57.867Z,7.20
2019-02-02T19:10:40.787Z,7.20
2019-02-02T19:13:14.604Z,7.20
2019-02-02T19:15:44.141Z,7.20
2019-02-02T19:18:14.947Z,7.20
2019-02-02T19:20:44.892Z,7.10
2019-02-02T19:23:24.827Z,7.10
2019-02-02T19:25:46.477Z,7.10
2019-02-02T19:28:19.141Z,7.10
2019-02-02T19:30:53.464Z,7.00
2019-02-02T19:33:23.035Z,7.10
2019-02-02T19:35:53.677Z,7.00
2019-02-02T19:38:24.209Z,7.00
2019-02-02T19:40:55.670Z,7.00
2019-02-02T19:43:29.106Z,7.00
2019-02-02T19:46:00.705Z,7.00
2019-02-02T19:48:32.163Z,7.00
2019-02-02T19:51:03.001Z,7.00
2019-02-02T19:53:33.317Z,6.90
2019-02-02T19:56:05.271Z,6.90
2019-02-02T19:58:39.929Z,6.90
2019-02-02T20:01:13.996Z,6.90
2019-02-02T20:03:45.201Z,6.90
2019-02-02T20:06:17.332Z,6.80
2019-02-02T20:08:48.146Z,6.80
2019-02-02T20:11:24.082Z,6.80
2019-02-02T20:13:55.458Z,6.80
2019-02-02T20:16:27.184Z,6.80
2019-02-02T20:19:00.698Z,6.70
2019-02-02T20:21:32.335Z,6.80
2019-02-02T20:24:01.840Z,6.80
2019-02-02T20:26:34.301Z,6.80
2019-02-02T20:29:06.360Z,6.70
2019-02-02T20:31:40.573Z,6.70
2019-02-02T20:34:10.259Z,6.70
2019-02-02T20:36:43.141Z,6.70
2019-02-02T20:39:16.359Z,6.70
2019-02-02T20:41:47.407Z,6.70
2019-02-02T20:44:18.694Z,6.70
2019-02-02T20:46:52.794Z,6.70
2019-02-02T20:49:26.619Z,6.60
2019-02-02T20:51:57.870Z,6.60
2019-02-02T20:54:30.877Z,6.60
2019-02-02T20:57:02.713Z,6.50
2019-02-02T20:59:34.952Z,6.50
2019-02-02T21:02:06.285Z,6.40
2019-02-02T21:04:39.896Z,6.40
2019-02-02T21:07:11.678Z,6.40
2019-02-02T21:09:45.975Z,6.40
2019-02-02T21:12:22.658Z,6.30
2019-02-02T21:14:53.645Z,6.40
2019-02-02T21:17:26.648Z,6.40
2019-02-02T21:19:58.945Z,6.40
2019-02-02T21:22:31.645Z,6.30
2019-02-02T21:25:04.989Z,6.40
2019-02-02T21:27:42.276Z,6.40
2019-02-02T21:30:25.898Z,6.40
2019-02-02T21:32:56.587Z,6.40
2019-02-02T21:35:27.232Z,6.30
2019-02-02T21:37:56.932Z,6.30
2019-02-02T21:40:31.381Z,6.40
2019-02-02T21:43:02.293Z,6.40
2019-02-02T21:45:32.946Z,6.40
2019-02-02T21:48:06.962Z,6.30
2019-02-02T21:50:36.073Z,6.30
2019-02-02T21:53:05.569Z,6.30
2019-02-02T21:55:37.411Z,6.30
2019-02-02T21:58:10.203Z,6.30
2019-02-02T22:00:42.085Z,6.30
2019-02-02T22:03:12.155Z,6.30
2019-02-02T22:05:42.178Z,6.20
2019-02-02T22:08:12.092Z,6.30
2019-02-02T22:10:43.771Z,6.30
2019-02-02T22:13:14.733Z,6.20
2019-02-02T22:15:43.969Z,6.20
2019-02-02T22:18:16.976Z,6.20
2019-02-02T22:20:48.347Z,6.20
2019-02-02T22:23:17.665Z,6.30
2019-02-02T22:25:47.715Z,6.20
2019-02-02T22:28:16.968Z,6.20
2019-02-02T22:30:47.511Z,6.20
2019-02-02T22:33:16.408Z,6.20
2019-02-02T22:35:46.187Z,6.20
2019-02-02T22:38:17.012Z,6.20
2019-02-02T22:40:46.907Z,6.30
2019-02-02T22:43:18.872Z,6.30
2019-02-02T22:45:49.291Z,6.30
2019-02-02T22:48:20.338Z,6.30
2019-02-02T22:50:50.585Z,6.30
2019-02-02T22:53:24.076Z,6.20
2019-02-02T22:55:55.431Z,6.30
2019-02-02T22:58:25.407Z,6.30
2019-02-02T23:01:27.259Z,6.30
2019-02-02T23:04:56.462Z,6.30
2019-02-02T23:07:59.703Z,6.40
2019-02-02T23:11:18.912Z,6.40
2019-02-02T23:14:48.344Z,6.40
2019-02-02T23:17:18.231Z,6.40
2019-02-02T23:19:49.473Z,6.30
2019-02-02T23:22:19.085Z,6.30
2019-02-02T23:24:48.871Z,6.30
2019-02-02T23:27:21.231Z,6.30
2019-02-02T23:29:50.831Z,6.30
2019-02-02T23:32:20.943Z,6.40
2019-02-02T23:34:51.303Z,6.40
2019-02-02T23:37:22.163Z,6.50
2019-02-02T23:39:52.760Z,6.50
2019-02-02T23:42:23.380Z,6.50
2019-02-02T23:44:53.695Z,6.50
2019-02-02T23:47:24.294Z,6.50
2019-02-02T23:49:55.520Z,6.50
2019-02-02T23:52:26.056Z,6.50
2019-02-02T23:54:57.852Z,6.50
2019-02-02T23:57:27.262Z,6.50
2019-02-02T23:59:58.403Z,6.50
